Prestwick Rnas, United Kingdom

8:06 AM GMT on December 20, 2014 (GMT +0000)
Monkton, S Ayrshire | Change Station
CLOSE
Current Station
Personal Weather Station
Location: Monkton, SOUTH AYRSHIRE
Elevation: 89 ft
Nearby Weather Stations

Elev 89 ft 55.52 °N, 4.60 °W | Updated 3 seconds ago

Scattered Clouds
Scattered Clouds
46.0 °F
Feels Like 42 °F
N
6.9
Wind Variable Wind from North
Gusts 13.0 mph

Today
High -- | Low -- °F
--% Chance of Precip.
Yesterday
High -- | Low -- °F
Precip. -- in
8:44 AM 3:47 PM
Waning Crescent, 4% visible
Pressure 30.04 in
Visibility 6.2 miles
Clouds Scattered Clouds 3000 ft
Windchill 42 °F
Dew Point 37 °F
Humidity 70%
Rainfall 0.00 in
Snow Depth Not available.
UV 0 out of 12
Pollen Not available.
Air Quality Not available.
Flu Activity Not available.
METAR EGPK 200750Z 30015KT 9999 SCT030 07/04 Q1017

More Conditions Fewer Conditions

Pressure 30.04 in
Visibility 6.2 miles
Clouds Scattered Clouds 3000 ft
Windchill 42 °F
Dew Point 37 °F
Humidity 70%
Rainfall 0.00 in
Snow Depth Not available.
UV 0 out of 12
Pollen Not available.
Air Quality Not available.
Flu Activity Not available.
METAR EGPK 200750Z 30015KT 9999 SCT030 07/04 Q1017

More Conditions Fewer Conditions

10-Day Weather Forecast

Almanac

Astronomy

Dec. 20, 2014 Rise Set
Actual Time
Civil Twilight
Nautical Twilight
Astronomical Twilight
Moon
Length of Visible Light
Length of Day
Tomorrow will be .
, % of the Moon is Illuminated

Today's Extremes

Country Highs Country Lows

Community

WunderPhotos

Upload Photos

1,779,146 photos uploaded!

WunderBlogs® & News

Nearby

Air Quality

  Air Quality AQ Index Pollutant
Not available.

Snow Depth

Station Depth Elevation

Earthquake Activity

City Distance Mag. Time & Date
Minimum magnitude displayed is 2.5.

Coastal Water Temperatures

Place Temperature

Nearby Weather Stations